Data for 01/30/2005

Time Sea-Level Adjusted Pressure Absolute Pressure Temperature Relative Humidity Dew Point   
(mb) (inHg) (mb) (inHg) (C) (F) (%) (C) (F)
00:05 1021 30.15 850 25.1 1.9 35.4 79 -1.4 29.4
00:10 1021 30.15 850 25.1 1.8 35.3 78 -1.6 29.1
00:15 1021 30.15 850 25.1 1.8 35.2 78 -1.7 29
00:20 1020 30.12 850 25.1 1.7 35.1 78 -1.8 28.8
00:25 1020 30.12 850 25.1 1.6 34.8 78 -1.9 28.7
00:30 1020 30.12 850 25.1 1.6 34.8 78 -1.9 28.7
00:35 1020 30.12 849 25.07 1.6 34.9 78 -1.8 28.7
00:40 1020 30.12 849 25.07 1.6 34.9 78 -1.8 28.7
00:45 1020 30.12 849 25.07 1.7 35 78 -1.8 28.7
00:50 1020 30.12 849 25.07 1.7 35 77 -1.9 28.6
00:55 1020 30.12 849 25.07 1.7 35 77 -1.9 28.6
01:00 1020 30.12 849 25.07 1.6 34.9 77 -1.9 28.6
01:05 1020 30.12 849 25.07 1.6 34.9 77 -2 28.5
01:10 1020 30.12 849 25.07 1.6 34.9 77 -2 28.3
01:15 1020 30.12 849 25.07 1.7 35 76 -2 28.3
01:20 1020 30.12 849 25.07 1.7 35 76 -2.1 28.3
01:25 1020 30.12 849 25.07 1.8 35.3 75 -2.1 28.2
01:30 1020 30.12 849 25.07 1.9 35.5 74 -2.2 28
01:35 1020 30.12 849 25.07 2 35.6 74 -2.2 28
01:40 1020 30.12 849 25.07 2.1 35.8 71 -2.5 27.4
01:45 1020 30.12 849 25.07 2.2 35.9 71 -2.5 27.5
01:50 1020 30.12 849 25.07 2.2 35.9 71 -2.5 27.5
01:55 1020 30.12 849 25.07 2.2 35.9 70 -2.7 27.1
02:00 1020 30.12 849 25.07 2.2 36 70 -2.7 27.2
02:05 1020 30.12 849 25.07 2.2 35.9 70 -2.7 27.1
02:10 1020 30.12 849 25.07 2.2 36 69 -2.9 26.9
02:15 1020 30.12 849 25.07 2.2 36 70 -2.8 27
02:20 1020 30.12 849 25.07 2.2 35.9 70 -2.7 27.2
02:25 1020 30.12 849 25.07 2.1 35.9 71 -2.6 27.2
02:30 1020 30.12 849 25.07 2 35.7 71 -2.7 27.2
02:35 1020 30.12 849 25.07 2 35.6 72 -2.6 27.3
02:40 1020 30.12 849 25.07 2 35.5 72 -2.5 27.5
02:45 1020 30.12 849 25.07 1.9 35.5 73 -2.5 27.6
02:50 1020 30.12 849 25.07 2 35.6 73 -2.4 27.8
02:55 1020 30.12 849 25.07 1.9 35.4 73 -2.4 27.7
03:00 1020 30.12 849 25.07 1.8 35.3 74 -2.3 27.8
03:05 1020 30.12 849 25.07 1.8 35.2 74 -2.3 27.8
03:10 1020 30.12 849 25.07 1.7 35.1 75 -2.3 27.8
03:15 1020 30.12 849 25.07 1.6 34.9 76 -2.2 28
03:20 1020 30.12 849 25.07 1.6 35 76 -2.1 28.2
03:25 1020 30.12 849 25.07 1.7 35 78 -1.8 28.7
03:30 1020 30.12 849 25.07 1.6 34.9 79 -1.7 29
03:35 1020 30.12 849 25.07 1.5 34.8 79 -1.6 29
03:40 1020 30.12 849 25.07 1.5 34.7 79 -1.7 28.9
03:45 1020 30.12 849 25.07 1.5 34.7 79 -1.8 28.7
03:50 1020 30.12 849 25.07 1.4 34.6 78 -2.1 28.3
03:55 1020 30.12 849 25.07 1.4 34.5 76 -2.3 27.9
04:00 1020 30.12 849 25.07 1.4 34.6 74 -2.7 27.2
04:05 1020 30.12 849 25.07 1.5 34.6 73 -2.8 26.9
04:10 1020 30.12 849 25.07 1.5 34.7 73 -2.8 27
04:15 1020 30.12 849 25.07 1.5 34.7 73 -2.8 27
04:20 1020 30.12 849 25.07 1.5 34.6 73 -2.8 26.9
04:25 1020 30.12 849 25.07 1.4 34.6 73 -2.9 26.9
04:30 1020 30.12 849 25.07 1.4 34.5 74 -2.8 27
04:35 1020 30.12 849 25.07 1.4 34.5 74 -2.7 27.1
04:40 1020 30.12 849 25.07 1.3 34.4 75 -2.7 27.2
04:45 1020 30.12 849 25.07 1.3 34.3 75 -2.7 27.1
04:50 1020 30.12 849 25.07 1.3 34.3 75 -2.7 27.1
04:55 1020 30.12 849 25.07 1.2 34.2 76 -2.6 27.3
05:00 1020 30.12 849 25.07 1.1 33.9 76 -2.8 27
05:05 1020 30.12 849 25.07 1.2 34.1 75 -2.7 27.1
05:10 1020 30.12 849 25.07 1.2 34.1 75 -2.8 26.9
05:15 1020 30.12 849 25.07 1.2 34.2 75 -2.8 26.9
05:20 1020 30.12 850 25.1 1.1 34 74 -2.9 26.7
05:25 1020 30.12 850 25.1 1.1 34 75 -2.9 26.8
05:30 1020 30.12 850 25.1 1 33.9 75 -2.9 26.9
05:35 1020 30.12 850 25.1 1 33.8 76 -2.8 27
05:40 1020 30.12 850 25.1 1 33.8 76 -2.7 27.1
05:45 1020 30.12 850 25.1 0.9 33.6 77 -2.8 27
05:50 1020 30.12 850 25.1 0.9 33.7 77 -2.7 27.1
05:55 1020 30.12 850 25.1 0.9 33.6 77 -2.7 27.1
06:00 1020 30.12 850 25.1 0.9 33.5 77 -2.7 27.1
06:05 1020 30.12 850 25.1 0.8 33.4 76 -2.9 26.8
06:10 1020 30.12 850 25.1 0.7 33.3 77 -2.8 27
06:15 1021 30.15 850 25.1 0.7 33.2 77 -2.9 26.7
06:20 1021 30.15 850 25.1 0.6 33.1 77 -3 26.6
06:25 1021 30.15 850 25.1 0.7 33.3 76 -3.1 26.5
06:30 1021 30.15 850 25.1 0.8 33.5 75 -3.2 26.3
06:35 1021 30.15 850 25.1 0.9 33.6 76 -2.9 26.9
06:40 1021 30.15 850 25.1 0.8 33.4 76 -2.9 26.7
06:45 1021 30.15 850 25.1 0.8 33.4 74 -3.4 26
06:50 1021 30.15 850 25.1 1 33.7 73 -3.4 25.9
06:55 1021 30.15 850 25.1 1 33.8 73 -3.3 26
07:00 1021 30.15 850 25.1 1.1 34 73 -3.2 26.3
07:05 1020 30.12 850 25.1 1 33.8 74 -3.1 26.4
07:10 1020 30.12 850 25.1 1 33.7 73 -3.3 26.1
07:15 1020 30.12 850 25.1 1 33.8 71 -3.7 25.3
07:20 1020 30.12 850 25.1 1 33.8 69 -4.1 24.6
07:25 1020 30.12 850 25.1 1.1 34 66 -4.5 24
07:30 1020 30.12 849 25.07 1.2 34.1 64 -4.8 23.3
07:35 1020 30.12 850 25.1 1.2 34.2 62 -5.2 22.6
07:40 1020 30.12 849 25.07 1.3 34.4 61 -5.4 22.3
07:45 1020 30.12 849 25.07 1.5 34.7 59 -5.7 21.7
07:50 1020 30.12 849 25.07 1.6 34.9 58 -5.7 21.8
07:55 1020 30.12 850 25.1 1.6 35 59 -5.4 22.2
08:00 1020 30.12 850 25.1 1.6 34.9 59 -5.5 22.1
08:05 1020 30.12 850 25.1 1.7 35 59 -5.5 22.1
08:10 1020 30.12 850 25.1 1.7 35.1 58 -5.7 21.7
08:15 1020 30.12 850 25.1 1.8 35.2 58 -5.6 21.9
08:20 1020 30.12 850 25.1 1.7 35.1 59 -5.5 22.1
08:25 1021 30.15 850 25.1 1.7 35.1 59 -5.5 22.2
08:30 1021 30.15 850 25.1 1.7 35.1 59 -5.4 22.4
08:35 1021 30.15 850 25.1 1.7 35.1 60 -5.3 22.5
08:40 1021 30.15 850 25.1 1.7 35.1 60 -5.3 22.5
08:45 1021 30.15 850 25.1 1.7 35 60 -5.3 22.5
08:50 1021 30.15 850 25.1 1.7 35.1 58 -5.7 21.7
08:55 1021 30.15 850 25.1 1.8 35.3 60 -5.2 22.6
09:00 1021 30.15 850 25.1 1.7 35.1 60 -5.1 22.7
09:05 1021 30.15 850 25.1 1.6 34.8 64 -4.5 23.8
09:10 1021 30.15 850 25.1 1.2 34.2 67 -4.3 24.3
09:15 1021 30.15 850 25.1 1.1 33.9 68 -4.2 24.5
09:20 1021 30.15 850 25.1 1 33.8 69 -4.1 24.6
09:25 1021 30.15 850 25.1 1 33.8 69 -4.1 24.7
09:30 1021 30.15 850 25.1 1 33.8 69 -4.1 24.6
09:35 1021 30.15 850 25.1 1 33.8 69 -4 24.8
09:40 1021 30.15 850 25.1 1 33.8 69 -4 24.8
09:45 1021 30.15 850 25.1 1 33.9 69 -3.9 24.9
09:50 1021 30.15 851 25.13 1.1 34 69 -4 24.8
09:55 1021 30.15 851 25.13 1.1 33.9 68 -4.1 24.6
10:00 1021 30.15 851 25.13 1.1 34 67 -4.3 24.3
10:05 1022 30.18 851 25.13 1.3 34.4 67 -4.2 24.4
10:10 1022 30.18 851 25.13 1.4 34.5 67 -4.1 24.7
10:15 1022 30.18 851 25.13 1.5 34.7 66 -4.2 24.4
10:20 1022 30.18 851 25.13 1.5 34.8 66 -4.2 24.5
10:25 1022 30.18 851 25.13 1.7 35.1 65 -4.2 24.4
10:30 1022 30.18 851 25.13 1.9 35.4 64 -4.2 24.5
10:35 1022 30.18 851 25.13 1.9 35.5 63 -4.3 24.2
10:40 1022 30.18 851 25.13 2.1 35.9 62 -4.3 24.2
10:45 1022 30.18 851 25.13 2.3 36.1 61 -4.5 23.8
10:50 1022 30.18 851 25.13 2.5 36.5 60 -4.5 23.9
10:55 1022 30.18 851 25.13 2.6 36.7 59 -4.5 23.9
11:00 1022 30.18 851 25.13 2.8 37 59 -4.4 24.2
11:05 1022 30.18 851 25.13 2.9 37.2 59 -4.4 24.1
11:10 1022 30.18 851 25.13 3 37.4 57 -4.6 23.7
11:15 1022 30.18 851 25.13 3.1 37.7 53 -5.5 22.1
11:20 1022 30.18 851 25.13 3.2 37.8 52 -5.7 21.7
11:25 1022 30.18 851 25.13 3.3 37.9 52 -5.8 21.6
11:30 1022 30.18 851 25.13 3.4 38.2 51 -5.7 21.8
11:35 1022 30.18 851 25.13 3.6 38.4 51 -5.8 21.6
11:40 1022 30.18 851 25.13 3.6 38.5 51 -5.5 22
11:45 1022 30.18 851 25.13 3.6 38.5 50 -5.9 21.4
11:50 1022 30.18 851 25.13 3.5 38.3 51 -5.8 21.5
11:55 1022 30.18 851 25.13 3.5 38.3 50 -5.9 21.3
12:00 1022 30.18 851 25.13 3.5 38.3 50 -5.9 21.4
12:05 1022 30.18 851 25.13 3.5 38.3 51 -5.7 21.7
12:10 1022 30.18 851 25.13 3.6 38.5 51 -5.6 21.9
12:15 1022 30.18 851 25.13 3.7 38.7 50 -5.8 21.6
12:20 1022 30.18 851 25.13 3.7 38.6 50 -5.9 21.4
12:25 1022 30.18 851 25.13 3.6 38.5 50 -5.8 21.6
12:30 1022 30.18 851 25.13 3.7 38.6 53 -5.1 22.9
12:35 1022 30.18 852 25.16 3.2 37.8 56 -4.7 23.5
12:40 1022 30.18 852 25.16 2.9 37.2 56 -5 23
12:45 1022 30.18 852 25.16 2.6 36.7 57 -5 23
12:50 1022 30.18 852 25.16 2.3 36.2 58 -5.2 22.7
12:55 1022 30.18 852 25.16 2.3 36.2 58 -5.1 22.8
13:00 1022 30.18 852 25.16 2.4 36.3 57 -5.2 22.6
13:05 1022 30.18 852 25.16 2.6 36.6 57 -5.1 22.8
13:10 1022 30.18 852 25.16 2.8 37 57 -4.9 23.2
13:15 1022 30.18 852 25.16 2.8 37 60 -4.1 24.5
13:20 1022 30.18 852 25.16 2.7 36.9 64 -3.4 25.8
13:25 1022 30.18 852 25.16 2.4 36.4 66 -3.3 26.1
13:30 1022 30.18 852 25.16 2.4 36.3 68 -2.9 26.8
13:35 1022 30.18 852 25.16 2.2 36 69 -2.9 26.8
13:40 1022 30.18 852 25.16 2.3 36.2 67 -3.1 26.4
13:45 1022 30.18 852 25.16 2.6 36.6 66 -3.2 26.3
13:50 1022 30.18 852 25.16 2.7 36.9 65 -3.1 26.5
13:55 1022 30.18 852 25.16 2.8 37 65 -3.1 26.4
14:00 1022 30.18 852 25.16 2.8 37.1 64 -3.2 26.2
14:05 1023 30.21 852 25.16 2.7 36.9 64 -3.5 25.8
14:10 1023 30.21 852 25.16 2.4 36.3 64 -3.7 25.4
14:15 1023 30.21 852 25.16 2.5 36.5 64 -3.6 25.6
14:20 1023 30.21 852 25.16 2.7 36.9 63 -3.6 25.5
14:25 1023 30.21 852 25.16 2.7 36.8 62 -3.8 25.2
14:30 1023 30.21 852 25.16 2.6 36.7 63 -3.7 25.3
14:35 1023 30.21 852 25.16 2.6 36.6 64 -3.5 25.7
14:40 1023 30.21 852 25.16 2.3 36.1 66 -3.4 25.9
14:45 1023 30.21 852 25.16 2.5 36.6 65 -3.3 26
14:50 1023 30.21 852 25.16 2.7 36.9 67 -2.8 27
14:55 1023 30.21 852 25.16 2.9 37.2 66 -2.9 26.9
15:00 1023 30.21 852 25.16 2.8 37.1 67 -2.7 27.1
15:05 1023 30.21 852 25.16 2.7 36.9 66 -3 26.5
15:10 1023 30.21 852 25.16 3 37.4 65 -3 26.7
15:15 1023 30.21 852 25.16 2.9 37.2 65 -3 26.5
15:20 1023 30.21 852 25.16 2.8 37 64 -3.3 26.1
15:25 1023 30.21 852 25.16 2.9 37.2 64 -3.2 26.2
15:30 1023 30.21 852 25.16 2.8 37.1 64 -3.3 26
15:35 1023 30.21 852 25.16 2.7 36.9 65 -3.2 26.2
15:40 1023 30.21 852 25.16 2.7 36.9 65 -3.3 26
15:45 1023 30.21 852 25.16 2.7 36.8 64 -3.5 25.7
15:50 1023 30.21 852 25.16 2.7 36.9 64 -3.5 25.7
15:55 1023 30.21 852 25.16 2.6 36.8 64 -3.5 25.8
16:00 1023 30.21 852 25.16 2.7 36.9 63 -3.6 25.6
16:05 1023 30.21 852 25.16 2.7 36.8 64 -3.4 25.8
16:10 1023 30.21 852 25.16 2.5 36.6 65 -3.4 25.9
16:15 1023 30.21 852 25.16 2.4 36.4 65 -3.5 25.7
16:20 1023 30.21 852 25.16 2.4 36.3 64 -3.7 25.4
16:25 1023 30.21 852 25.16 2.6 36.7 62 -3.9 25
16:30 1023 30.21 852 25.16 2.7 36.8 61 -4.1 24.7
16:35 1023 30.21 852 25.16 2.7 36.8 63 -3.7 25.4
16:40 1023 30.21 852 25.16 2.4 36.3 64 -3.6 25.5
16:45 1023 30.21 853 25.19 2.3 36.1 64 -3.8 25.1
16:50 1023 30.21 853 25.19 2.2 35.9 65 -3.7 25.3
16:55 1023 30.21 853 25.19 2 35.5 66 -3.8 25.2
17:00 1023 30.21 853 25.19 1.9 35.4 65 -4.1 24.7
17:05 1024 30.24 853 25.19 2 35.6 66 -3.7 25.3
17:10 1024 30.24 853 25.19 2 35.6 64 -4.1 24.6
17:15 1024 30.24 853 25.19 2.1 35.7 64 -4 24.8
17:20 1024 30.24 853 25.19 1.9 35.5 65 -4 24.8
17:25 1024 30.24 853 25.19 1.8 35.2 65 -4.1 24.5
17:30 1024 30.24 853 25.19 1.8 35.2 64 -4.3 24.3
17:35 1024 30.24 853 25.19 1.8 35.3 64 -4.2 24.5
17:40 1024 30.24 853 25.19 1.8 35.3 64 -4.3 24.3
17:45 1024 30.24 853 25.19 1.8 35.2 66 -3.9 25
17:50 1024 30.24 853 25.19 1.5 34.7 68 -3.7 25.3
17:55 1024 30.24 853 25.19 1.4 34.5 66 -4.3 24.3
18:00 1024 30.24 853 25.19 1.7 35 65 -4.1 24.6
18:05 1024 30.24 853 25.19 1.9 35.3 66 -3.8 25.1
18:10 1024 30.24 853 25.19 1.7 35.1 66 -4 24.8
18:15 1024 30.24 853 25.19 1.8 35.2 66 -4 24.9
18:20 1024 30.24 853 25.19 1.7 35.1 66 -4 24.7
18:25 1024 30.24 853 25.19 1.7 35.1 65 -4.1 24.6
18:30 1024 30.24 853 25.19 1.7 35.1 66 -4 24.9
18:35 1024 30.24 853 25.19 1.3 34.4 68 -3.9 25
18:40 1024 30.24 853 25.19 0.8 33.4 71 -3.8 25.1
18:45 1024 30.24 853 25.19 0.2 32.4 73 -4 24.9
18:50 1024 30.24 853 25.19 0.2 32.3 72 -4.3 24.2
18:55 1024 30.24 853 25.19 0.5 33 72 -4 24.9
19:00 1024 30.24 853 25.19 0.8 33.5 70 -4 24.8
19:05 1024 30.24 853 25.19 1 33.7 69 -4 24.8
19:10 1024 30.24 854 25.22 0.8 33.4 70 -4.1 24.6
19:15 1024 30.24 854 25.22 0.7 33.3 70 -4.1 24.7
19:20 1024 30.24 854 25.22 0.7 33.3 71 -4 24.7
19:25 1024 30.24 854 25.22 0.7 33.3 69 -4.3 24.3
19:30 1024 30.24 854 25.22 0.9 33.6 68 -4.3 24.2
19:35 1024 30.24 854 25.22 1 33.8 68 -4.3 24.3
19:40 1025 30.27 854 25.22 1.1 33.9 66 -4.6 23.8
19:45 1025 30.27 854 25.22 1.3 34.3 66 -4.4 24
19:50 1025 30.27 854 25.22 1.2 34.2 65 -4.6 23.7
19:55 1025 30.27 854 25.22 1.3 34.3 64 -4.7 23.5
20:00 1025 30.27 854 25.22 1.2 34.2 65 -4.6 23.7
20:05 1025 30.27 854 25.22 1.2 34.2 65 -4.7 23.6
20:10 1025 30.27 854 25.22 1.4 34.5 62 -5.1 22.7
20:15 1025 30.27 854 25.22 1.8 35.2 60 -5.3 22.5
20:20 1025 30.27 854 25.22 2 35.5 59 -5.1 22.7
20:25 1025 30.27 854 25.22 1.9 35.5 60 -5 22.9
20:30 1025 30.27 854 25.22 1.8 35.2 62 -4.7 23.5
20:35 1025 30.27 854 25.22 1.5 34.8 63 -4.7 23.5
20:40 1025 30.27 854 25.22 1.4 34.5 65 -4.5 23.8
20:45 1025 30.27 854 25.22 1.2 34.1 65 -4.8 23.4
20:50 1025 30.27 854 25.22 1.2 34.1 65 -4.8 23.4
20:55 1025 30.27 854 25.22 1.3 34.3 63 -4.9 23.2
21:00 1025 30.27 854 25.22 1.5 34.7 63 -4.9 23.2
21:05 1025 30.27 854 25.22 1.4 34.5 65 -4.4 24
21:10 1025 30.27 854 25.22 1.1 33.9 67 -4.4 24.1
21:15 1025 30.27 854 25.22 0.8 33.5 67 -4.5 23.8
21:20 1025 30.27 854 25.22 0.8 33.5 66 -4.9 23.2
21:25 1025 30.27 854 25.22 1.1 34 63 -5.1 22.8
21:30 1025 30.27 854 25.22 1.2 34.1 67 -4.4 24.1
21:35 1025 30.27 854 25.22 0.7 33.3 67 -4.7 23.5
21:40 1025 30.27 854 25.22 0.7 33.3 68 -4.5 23.9
21:45 1025 30.27 854 25.22 0.6 33.1 66 -5 23.1
21:50 1025 30.27 854 25.22 0.5 32.9 68 -4.7 23.6
21:55 1025 30.27 854 25.22 0.4 32.7 69 -4.6 23.6
22:00 1025 30.27 854 25.22 0.3 32.6 71 -4.4 24.1
22:05 1025 30.27 854 25.22 0.2 32.4 70 -4.6 23.7
22:10 1025 30.27 854 25.22 0.4 32.6 70 -4.5 23.8
22:15 1025 30.27 854 25.22 0.3 32.6 70 -4.6 23.8
22:20 1025 30.27 854 25.22 -0.3 31.5 74 -4.3 24.3
22:25 1025 30.27 854 25.22 -0.6 30.9 74 -4.7 23.6
22:30 1025 30.27 854 25.22 -0.8 30.6 74 -4.9 23.2
22:35 1025 30.27 854 25.22 -0.9 30.4 73 -5 22.9
22:40 1025 30.27 854 25.22 -0.6 31 71 -5.3 22.5
22:45 1025 30.27 854 25.22 -0.6 30.9 70 -5.4 22.3
22:50 1025 30.27 854 25.22 -0.6 31 69 -5.6 22
22:55 1025 30.27 854 25.22 -0.5 31.2 68 -5.7 21.7
23:00 1025 30.27 854 25.22 -0.3 31.4 67 -5.7 21.8
23:05 1025 30.27 854 25.22 -0.4 31.3 68 -5.7 21.8
23:10 1025 30.27 854 25.22 -0.6 30.9 68 -5.7 21.7
23:15 1025 30.27 854 25.22 -0.7 30.8 69 -5.8 21.6
23:20 1025 30.27 854 25.22 -0.4 31.2 67 -5.8 21.6
23:25 1025 30.27 854 25.22 -0.6 31 67 -5.9 21.3
23:30 1025 30.27 854 25.22 -0.7 30.7 68 -5.9 21.3
23:35 1025 30.27 854 25.22 -0.9 30.3 71 -5.6 21.9
23:40 1025 30.27 854 25.22 -1.1 30 70 -5.8 21.6
23:45 1025 30.27 854 25.22 -1 30.2 70 -5.8 21.6
23:50 1025 30.27 854 25.22 -1.2 29.9 70 -5.9 21.4
23:55 1025 30.27 854 25.22 -1.1 30.1 70 -5.8 21.5
24:00 1025 30.27 854 25.22 -0.9 30.5 69 -5.8 21.6